Polvadera, NM (87828)

10:23 AM MST on December 25, 2014 (GMT -0700)
Community Road | Change Station
CLOSE
Current Station
Personal Weather Station
Location: Polvadera, NM
Elevation: 4645 ft
Nearby Weather Stations

Elev 4645 ft 34.20 °N, 106.91 °W | Updated 0 second ago

Clear
Clear
49.3 °F
Feels Like 43 °F
N
17.2
Wind Variable Wind from SSE
Gusts 19.2 mph

Today
High -- | Low -- °F
--% Chance of Precip.
Yesterday
High -- | Low -- °F
Precip. -- in
7:11 AM 5:04 PM
Waxing Crescent, 18% visible
Pressure 29.76 in
Visibility 10.0 miles
Clouds Clear
Windchill 43 °F
Dew Point 14 °F
Humidity 24%
Rainfall 0.00 in
Snow Depth Not available.
UV 3 out of 12
Pollen 1.90 out of 12
Air Quality Not available.
Flu Activity Not available.
METAR KONM 251715Z AUTO 18015G23KT 10SM CLR 07/M13 A2976 RMK AO2 T00671130

More Conditions Fewer Conditions

Pressure 29.76 in
Visibility 10.0 miles
Clouds Clear
Windchill 43 °F
Dew Point 14 °F
Humidity 24%
Rainfall 0.00 in
Snow Depth Not available.
UV 3 out of 12
Pollen 1.90 out of 12
Air Quality Not available.
Flu Activity Not available.
METAR KONM 251715Z AUTO 18015G23KT 10SM CLR 07/M13 A2976 RMK AO2 T00671130

More Conditions Fewer Conditions

10-Day Weather Forecast

Almanac

Astronomy

Dec. 25, 2014 Rise Set
Actual Time
Civil Twilight
Nautical Twilight
Astronomical Twilight
Moon
Length of Visible Light
Length of Day
Tomorrow will be .
, % of the Moon is Illuminated

Today's Extremes

State Highs State Lows

Community

WunderPhotos

Upload Photos

1,780,346 photos uploaded!

WunderBlogs® & News

Nearby

Air Quality

  Air Quality AQ Index Pollutant
Not available.

Snow Depth

Station Depth Elevation

Earthquake Activity

City Distance Mag. Time & Date
Minimum magnitude displayed is 2.5.

Coastal Water Temperatures

Place Temperature

Nearby Weather Stations